sensor_id;sensor_type;location;lat;lon;timestamp;pressure;altitude;pressure_sealevel;temperature;humidity
61786;BME280;47692;53.714;11.372;2023-02-17T00:02:00;101099.56;;;5.69;100.00
61786;BME280;47692;53.714;11.372;2023-02-17T00:04:27;101093.53;;;5.70;100.00
61786;BME280;47692;53.714;11.372;2023-02-17T00:06:53;101092.66;;;5.72;100.00
61786;BME280;47692;53.714;11.372;2023-02-17T00:09:18;101090.06;;;5.74;100.00
61786;BME280;47692;53.714;11.372;2023-02-17T00:11:44;101085.78;;;5.77;100.00
61786;BME280;47692;53.714;11.372;2023-02-17T00:14:11;101074.53;;;5.74;100.00
61786;BME280;47692;53.714;11.372;2023-02-17T00:16:37;101078.88;;;5.79;100.00
61786;BME280;47692;53.714;11.372;2023-02-17T00:19:02;101080.59;;;5.79;100.00
61786;BME280;47692;53.714;11.372;2023-02-17T00:21:48;101068.50;;;5.82;100.00
61786;BME280;47692;53.714;11.372;2023-02-17T00:24:13;101072.84;;;5.83;100.00
61786;BME280;47692;53.714;11.372;2023-02-17T00:26:42;101071.09;;;5.79;100.00
61786;BME280;47692;53.714;11.372;2023-02-17T00:29:16;101070.22;;;5.80;100.00
61786;BME280;47692;53.714;11.372;2023-02-17T00:31:45;101083.19;;;5.83;100.00
61786;BME280;47692;53.714;11.372;2023-02-17T00:34:11;101085.78;;;5.82;100.00
61786;BME280;47692;53.714;11.372;2023-02-17T00:36:39;101080.59;;;5.83;100.00
61786;BME280;47692;53.714;11.372;2023-02-17T00:39:13;101074.53;;;5.83;100.00
61786;BME280;47692;53.714;11.372;2023-02-17T00:41:39;101073.72;;;5.86;100.00
61786;BME280;47692;53.714;11.372;2023-02-17T00:44:04;101065.94;;;5.89;100.00
61786;BME280;47692;53.714;11.372;2023-02-17T00:46:35;101070.25;;;5.90;100.00
61786;BME280;47692;53.714;11.372;2023-02-17T00:49:00;101063.34;;;5.89;100.00
61786;BME280;47692;53.714;11.372;2023-02-17T00:51:28;101060.75;;;5.90;100.00
61786;BME280;47692;53.714;11.372;2023-02-17T00:53:57;101056.44;;;5.91;100.00
61786;BME280;47692;53.714;11.372;2023-02-17T00:56:25;101052.97;;;5.89;100.00
61786;BME280;47692;53.714;11.372;2023-02-17T00:58:51;101046.06;;;5.88;100.00
61786;BME280;47692;53.714;11.372;2023-02-17T01:01:16;101050.41;;;5.92;100.00
61786;BME280;47692;53.714;11.372;2023-02-17T01:03:41;101039.16;;;5.90;100.00
61786;BME280;47692;53.714;11.372;2023-02-17T01:06:25;101038.28;;;5.91;100.00
61786;BME280;47692;53.714;11.372;2023-02-17T01:08:51;101036.56;;;5.93;100.00
61786;BME280;47692;53.714;11.372;2023-02-17T01:11:23;101034.84;;;5.92;100.00
61786;BME280;47692;53.714;11.372;2023-02-17T01:13:49;101033.97;;;5.93;100.00
61786;BME280;47692;53.714;11.372;2023-02-17T01:16:39;101023.59;;;5.90;100.00
61786;BME280;47692;53.714;11.372;2023-02-17T01:19:10;101027.06;;;5.92;100.00
61786;BME280;47692;53.714;11.372;2023-02-17T01:21:36;101013.25;;;5.90;100.00
61786;BME280;47692;53.714;11.372;2023-02-17T01:24:06;101008.06;;;5.90;100.00
61786;BME280;47692;53.714;11.372;2023-02-17T01:26:34;101007.19;;;5.89;100.00
61786;BME280;47692;53.714;11.372;2023-02-17T01:29:04;100987.31;;;5.90;100.00
61786;BME280;47692;53.714;11.372;2023-02-17T01:31:30;100983.84;;;5.88;100.00
61786;BME280;47692;53.714;11.372;2023-02-17T01:33:58;100995.97;;;5.95;100.00
61786;BME280;47692;53.714;11.372;2023-02-17T01:36:24;100983.00;;;5.92;100.00
61786;BME280;47692;53.714;11.372;2023-02-17T01:38:56;100983.88;;;5.91;100.00
61786;BME280;47692;53.714;11.372;2023-02-17T01:41:30;100980.44;;;5.92;100.00
61786;BME280;47692;53.714;11.372;2023-02-17T01:46:34;100962.28;;;5.93;100.00
61786;BME280;47692;53.714;11.372;2023-02-17T01:49:02;100946.72;;;5.93;100.00
61786;BME280;47692;53.714;11.372;2023-02-17T01:51:33;100948.44;;;5.93;100.00
61786;BME280;47692;53.714;11.372;2023-02-17T01:54:06;100947.59;;;5.94;100.00
61786;BME280;47692;53.714;11.372;2023-02-17T01:56:34;100944.97;;;5.95;100.00
61786;BME280;47692;53.714;11.372;2023-02-17T01:59:08;100943.28;;;5.96;100.00
61786;BME280;47692;53.714;11.372;2023-02-17T02:01:35;100936.34;;;5.90;100.00
61786;BME280;47692;53.714;11.372;2023-02-17T02:04:03;100930.31;;;5.96;100.00
61786;BME280;47692;53.714;11.372;2023-02-17T02:06:33;100932.03;;;5.94;100.00
61786;BME280;47692;53.714;11.372;2023-02-17T02:09:03;100928.56;;;5.95;100.00
61786;BME280;47692;53.714;11.372;2023-02-17T02:11:31;100910.44;;;5.95;100.00
61786;BME280;47692;53.714;11.372;2023-02-17T02:13:56;100909.59;;;5.99;100.00
61786;BME280;47692;53.714;11.372;2023-02-17T02:19:30;100902.69;;;6.00;100.00
61786;BME280;47692;53.714;11.372;2023-02-17T02:30:44;100882.81;;;6.02;100.00
61786;BME280;47692;53.714;11.372;2023-02-17T02:33:35;100878.47;;;6.05;100.00
61786;BME280;47692;53.714;11.372;2023-02-17T02:36:23;100869.88;;;6.03;100.00
61786;BME280;47692;53.714;11.372;2023-02-17T02:38:57;100862.09;;;6.05;100.00
61786;BME280;47692;53.714;11.372;2023-02-17T02:41:30;100856.03;;;6.03;100.00
61786;BME280;47692;53.714;11.372;2023-02-17T02:44:16;100856.03;;;6.07;100.00
61786;BME280;47692;53.714;11.372;2023-02-17T02:46:42;100852.56;;;6.08;100.00
61786;BME280;47692;53.714;11.372;2023-02-17T02:49:07;100845.66;;;6.07;100.00
61786;BME280;47692;53.714;11.372;2023-02-17T02:56:58;100840.47;;;6.07;100.00
61786;BME280;47692;53.714;11.372;2023-02-17T03:02:17;100843.91;;;6.12;100.00
61786;BME280;47692;53.714;11.372;2023-02-17T03:07:25;100834.41;;;6.14;100.00
61786;BME280;47692;53.714;11.372;2023-02-17T03:09:54;100835.25;;;6.17;100.00
61786;BME280;47692;53.714;11.372;2023-02-17T03:12:22;100824.03;;;6.16;100.00
61786;BME280;47692;53.714;11.372;2023-02-17T03:14:49;100836.97;;;6.18;100.00
61786;BME280;47692;53.714;11.372;2023-02-17T03:17:15;100839.56;;;6.18;100.00
61786;BME280;47692;53.714;11.372;2023-02-17T03:19:41;100835.25;;;6.21;100.00
61786;BME280;47692;53.714;11.372;2023-02-17T03:22:15;100824.88;;;6.26;100.00
61786;BME280;47692;53.714;11.372;2023-02-17T03:24:43;100806.72;;;6.21;100.00
61786;BME280;47692;53.714;11.372;2023-02-17T03:27:09;100820.56;;;6.22;100.00
61786;BME280;47692;53.714;11.372;2023-02-17T03:29:34;100819.69;;;6.26;100.00
61786;BME280;47692;53.714;11.372;2023-02-17T03:32:00;100811.88;;;6.29;100.00
61786;BME280;47692;53.714;11.372;2023-02-17T03:34:25;100805.00;;;6.25;100.00
61786;BME280;47692;53.714;11.372;2023-02-17T03:36:51;100811.91;;;6.27;100.00
61786;BME280;47692;53.714;11.372;2023-02-17T03:39:16;100813.63;;;6.27;100.00
61786;BME280;47692;53.714;11.372;2023-02-17T03:41:42;100807.59;;;6.28;100.00
61786;BME280;47692;53.714;11.372;2023-02-17T03:44:10;100807.59;;;6.28;100.00
61786;BME280;47692;53.714;11.372;2023-02-17T03:46:38;100803.25;;;6.27;100.00
61786;BME280;47692;53.714;11.372;2023-02-17T03:49:04;100798.06;;;6.28;100.00
61786;BME280;47692;53.714;11.372;2023-02-17T03:51:30;100797.19;;;6.31;100.00
61786;BME280;47692;53.714;11.372;2023-02-17T03:53:55;100794.59;;;6.31;100.00
61786;BME280;47692;53.714;11.372;2023-02-17T03:56:20;100795.47;;;6.30;100.00
61786;BME280;47692;53.714;11.372;2023-02-17T03:58:46;100804.06;;;6.35;100.00
61786;BME280;47692;53.714;11.372;2023-02-17T04:01:12;100804.09;;;6.32;100.00
61786;BME280;47692;53.714;11.372;2023-02-17T04:03:39;100803.22;;;6.39;100.00
61786;BME280;47692;53.714;11.372;2023-02-17T04:06:05;100804.06;;;6.35;100.00
61786;BME280;47692;53.714;11.372;2023-02-17T04:08:31;100802.34;;;6.37;100.00
61786;BME280;47692;53.714;11.372;2023-02-17T04:10:59;100799.72;;;6.43;100.00
61786;BME280;47692;53.714;11.372;2023-02-17T04:13:25;100785.03;;;6.42;100.00
61786;BME280;47692;53.714;11.372;2023-02-17T04:15:51;100795.41;;;6.42;100.00
61786;BME280;47692;53.714;11.372;2023-02-17T04:18:17;100795.44;;;6.41;100.00
61786;BME280;47692;53.714;11.372;2023-02-17T04:20:43;100790.22;;;6.42;100.00
61786;BME280;47692;53.714;11.372;2023-02-17T04:23:10;100797.13;;;6.50;100.00
61786;BME280;47692;53.714;11.372;2023-02-17T04:25:36;100800.56;;;6.49;100.00
61786;BME280;47692;53.714;11.372;2023-02-17T04:28:03;100793.63;;;6.57;100.00
61786;BME280;47692;53.714;11.372;2023-02-17T04:30:29;100791.94;;;6.53;100.00
61786;BME280;47692;53.714;11.372;2023-02-17T04:32:54;100793.63;;;6.57;100.00
61786;BME280;47692;53.714;11.372;2023-02-17T04:35:20;100797.13;;;6.53;100.00
61786;BME280;47692;53.714;11.372;2023-02-17T04:37:45;100799.66;;;6.62;100.00
61786;BME280;47692;53.714;11.372;2023-02-17T04:40:11;100800.50;;;6.61;100.00
61786;BME280;47692;53.714;11.372;2023-02-17T04:42:36;100792.75;;;6.59;100.00
61786;BME280;47692;53.714;11.372;2023-02-17T04:45:04;100769.41;;;6.58;100.00
61786;BME280;47692;53.714;11.372;2023-02-17T04:47:30;100764.19;;;6.61;100.00
61786;BME280;47692;53.714;11.372;2023-02-17T04:49:55;100755.50;;;6.65;100.00
61786;BME280;47692;53.714;11.372;2023-02-17T04:52:20;100772.84;;;6.63;100.00
61786;BME280;47692;53.714;11.372;2023-02-17T04:54:46;100772.81;;;6.66;100.00
61786;BME280;47692;53.714;11.372;2023-02-17T04:57:11;100774.56;;;6.64;100.00
61786;BME280;47692;53.714;11.372;2023-02-17T04:59:36;100778.84;;;6.70;100.00
61786;BME280;47692;53.714;11.372;2023-02-17T05:02:02;100761.53;;;6.72;100.00
61786;BME280;47692;53.714;11.372;2023-02-17T05:04:27;100760.63;;;6.81;100.00
61786;BME280;47692;53.714;11.372;2023-02-17T05:06:53;100748.50;;;6.83;100.00
61786;BME280;47692;53.714;11.372;2023-02-17T05:09:18;100731.22;;;6.82;100.00
61786;BME280;47692;53.714;11.372;2023-02-17T05:11:44;100720.78;;;6.85;100.00
61786;BME280;47692;53.714;11.372;2023-02-17T05:14:09;100721.63;;;6.88;100.00
61786;BME280;47692;53.714;11.372;2023-02-17T05:16:35;100735.44;;;6.92;100.00
61786;BME280;47692;53.714;11.372;2023-02-17T05:19:00;100724.19;;;6.93;100.00
61786;BME280;47692;53.714;11.372;2023-02-17T05:21:26;100715.53;;;6.95;100.00
61786;BME280;47692;53.714;11.372;2023-02-17T05:23:51;100716.38;;;6.98;100.00
61786;BME280;47692;53.714;11.372;2023-02-17T05:26:16;100711.16;;;7.01;100.00
61786;BME280;47692;53.714;11.372;2023-02-17T05:28:42;100710.28;;;7.03;100.00
61786;BME280;47692;53.714;11.372;2023-02-17T05:31:07;100702.50;;;7.02;100.00
61786;BME280;47692;53.714;11.372;2023-02-17T05:33:32;100692.09;;;7.06;100.00
61786;BME280;47692;53.714;11.372;2023-02-17T05:36:02;100688.59;;;7.09;100.00
61786;BME280;47692;53.714;11.372;2023-02-17T05:38:28;100686.03;;;7.07;100.00
61786;BME280;47692;53.714;11.372;2023-02-17T05:40:54;100692.91;;;7.11;100.00
61786;BME280;47692;53.714;11.372;2023-02-17T05:43:19;100685.94;;;7.14;100.00
61786;BME280;47692;53.714;11.372;2023-02-17T05:45:44;100680.72;;;7.17;100.00
61786;BME280;47692;53.714;11.372;2023-02-17T05:48:10;100681.53;;;7.22;100.00
61786;BME280;47692;53.714;11.372;2023-02-17T05:50:35;100674.63;;;7.21;100.00
61786;BME280;47692;53.714;11.372;2023-02-17T05:53:00;100673.75;;;7.25;100.00
61786;BME280;47692;53.714;11.372;2023-02-17T05:55:26;100666.78;;;7.27;100.00
61786;BME280;47692;53.714;11.372;2023-02-17T05:57:51;100664.16;;;7.30;100.00
61786;BME280;47692;53.714;11.372;2023-02-17T06:00:16;100664.13;;;7.33;100.00
61786;BME280;47692;53.714;11.372;2023-02-17T06:02:42;100657.13;;;7.38;100.00
61786;BME280;47692;53.714;11.372;2023-02-17T06:05:07;100652.78;;;7.40;100.00
61786;BME280;47692;53.714;11.372;2023-02-17T06:07:33;100644.09;;;7.44;100.00
61786;BME280;47692;53.714;11.372;2023-02-17T06:09:58;100644.09;;;7.46;100.00
61786;BME280;47692;53.714;11.372;2023-02-17T06:12:24;100644.91;;;7.50;100.00
61786;BME280;47692;53.714;11.372;2023-02-17T06:14:49;100651.81;;;7.51;100.00
61786;BME280;47692;53.714;11.372;2023-02-17T06:17:14;100640.53;;;7.55;100.00
61786;BME280;47692;53.714;11.372;2023-02-17T06:19:39;100640.50;;;7.56;100.00
61786;BME280;47692;53.714;11.372;2023-02-17T06:22:05;100645.66;;;7.58;100.00
61786;BME280;47692;53.714;11.372;2023-02-17T06:24:30;100640.50;;;7.56;100.00
61786;BME280;47692;53.714;11.372;2023-02-17T06:26:55;100642.19;;;7.59;100.00
61786;BME280;47692;53.714;11.372;2023-02-17T06:29:21;100641.28;;;7.63;100.00
61786;BME280;47692;53.714;11.372;2023-02-17T06:31:46;100641.25;;;7.66;100.00
61786;BME280;47692;53.714;11.372;2023-02-17T06:34:12;100623.91;;;7.67;100.00
61786;BME280;47692;53.714;11.372;2023-02-17T06:36:37;100628.22;;;7.71;100.00
61786;BME280;47692;53.714;11.372;2023-02-17T06:39:02;100618.66;;;7.71;100.00
61786;BME280;47692;53.714;11.372;2023-02-17T06:41:28;100614.34;;;7.70;100.00
61786;BME280;47692;53.714;11.372;2023-02-17T06:43:53;100613.47;;;7.71;100.00
61786;BME280;47692;53.714;11.372;2023-02-17T06:46:18;100607.44;;;7.71;100.00
61786;BME280;47692;53.714;11.372;2023-02-17T06:48:44;100591.81;;;7.72;100.00
61786;BME280;47692;53.714;11.372;2023-02-17T06:51:09;100594.41;;;7.72;100.00
61786;BME280;47692;53.714;11.372;2023-02-17T06:53:34;100581.41;;;7.72;100.00
61786;BME280;47692;53.714;11.372;2023-02-17T06:56:00;100577.06;;;7.73;100.00
61786;BME280;47692;53.714;11.372;2023-02-17T06:58:25;100569.22;;;7.74;100.00
61786;BME280;47692;53.714;11.372;2023-02-17T07:00:50;100563.97;;;7.79;100.00
61786;BME280;47692;53.714;11.372;2023-02-17T07:03:16;100566.63;;;7.78;100.00
61786;BME280;47692;53.714;11.372;2023-02-17T07:05:41;100541.47;;;7.80;100.00
61786;BME280;47692;53.714;11.372;2023-02-17T07:08:07;100536.22;;;7.83;100.00
61786;BME280;47692;53.714;11.372;2023-02-17T07:10:32;100537.94;;;7.84;100.00
61786;BME280;47692;53.714;11.372;2023-02-17T07:12:57;100549.19;;;7.86;100.00
61786;BME280;47692;53.714;11.372;2023-02-17T07:15:23;100546.59;;;7.86;100.00
61786;BME280;47692;53.714;11.372;2023-02-17T07:17:48;100543.94;;;7.87;100.00
61786;BME280;47692;53.714;11.372;2023-02-17T07:20:14;100532.66;;;7.90;100.00
61786;BME280;47692;53.714;11.372;2023-02-17T07:22:39;100531.78;;;7.91;100.00
61786;BME280;47692;53.714;11.372;2023-02-17T07:25:05;100533.50;;;7.92;100.00
61786;BME280;47692;53.714;11.372;2023-02-17T07:27:31;100530.03;;;7.91;100.00
61786;BME280;47692;53.714;11.372;2023-02-17T07:29:56;100526.59;;;7.89;100.00
61786;BME280;47692;53.714;11.372;2023-02-17T07:32:22;100529.19;;;7.91;100.00
61786;BME280;47692;53.714;11.372;2023-02-17T07:34:47;100529.19;;;7.91;100.00
61786;BME280;47692;53.714;11.372;2023-02-17T07:37:13;100523.13;;;7.89;100.00
61786;BME280;47692;53.714;11.372;2023-02-17T07:39:38;100517.81;;;7.97;100.00
61786;BME280;47692;53.714;11.372;2023-02-17T07:42:03;100518.69;;;7.97;100.00
61786;BME280;47692;53.714;11.372;2023-02-17T07:44:30;100510.84;;;7.99;100.00
61786;BME280;47692;53.714;11.372;2023-02-17T07:46:55;100497.81;;;8.00;100.00
61786;BME280;47692;53.714;11.372;2023-02-17T07:49:21;100491.72;;;8.03;100.00
61786;BME280;47692;53.714;11.372;2023-02-17T07:51:46;100483.06;;;8.02;100.00
61786;BME280;47692;53.714;11.372;2023-02-17T07:54:12;100475.22;;;8.05;100.00
61786;BME280;47692;53.714;11.372;2023-02-17T07:56:38;100471.75;;;8.05;100.00
61786;BME280;47692;53.714;11.372;2023-02-17T07:59:07;100472.63;;;8.04;100.00
61786;BME280;47692;53.714;11.372;2023-02-17T08:01:33;100477.91;;;8.01;100.00
61786;BME280;47692;53.714;11.372;2023-02-17T08:03:58;100470.09;;;7.99;100.00
61786;BME280;47692;53.714;11.372;2023-02-17T08:06:25;100476.16;;;8.01;100.00
61786;BME280;47692;53.714;11.372;2023-02-17T08:08:52;100478.75;;;8.01;100.00
61786;BME280;47692;53.714;11.372;2023-02-17T08:11:36;100472.69;;;8.01;100.00
61786;BME280;47692;53.714;11.372;2023-02-17T08:14:22;100470.91;;;8.03;100.00
61786;BME280;47692;53.714;11.372;2023-02-17T08:16:47;100473.53;;;8.01;100.00
61786;BME280;47692;53.714;11.372;2023-02-17T08:19:13;100472.69;;;8.01;100.00
61786;BME280;47692;53.714;11.372;2023-02-17T08:21:38;100468.34;;;8.01;100.00
61786;BME280;47692;53.714;11.372;2023-02-17T08:24:04;100444.91;;;8.03;100.00
61786;BME280;47692;53.714;11.372;2023-02-17T08:26:29;100443.19;;;8.02;100.00
61786;BME280;47692;53.714;11.372;2023-02-17T08:28:55;100437.97;;;8.05;100.00
61786;BME280;47692;53.714;11.372;2023-02-17T08:31:25;100447.50;;;8.03;100.00
61786;BME280;47692;53.714;11.372;2023-02-17T08:33:51;100440.59;;;8.03;100.00
61786;BME280;47692;53.714;11.372;2023-02-17T08:36:17;100435.41;;;8.03;100.00
61786;BME280;47692;53.714;11.372;2023-02-17T08:38:44;100417.19;;;8.03;100.00
61786;BME280;47692;53.714;11.372;2023-02-17T08:41:20;100403.34;;;8.01;100.00
61786;BME280;47692;53.714;11.372;2023-02-17T08:43:47;100410.28;;;8.02;100.00
61786;BME280;47692;53.714;11.372;2023-02-17T08:46:13;100404.13;;;8.06;100.00
61786;BME280;47692;53.714;11.372;2023-02-17T08:48:39;100395.47;;;8.06;100.00
61786;BME280;47692;53.714;11.372;2023-02-17T08:51:04;100398.94;;;8.06;100.00
61786;BME280;47692;53.714;11.372;2023-02-17T08:53:30;100383.28;;;8.09;100.00
61786;BME280;47692;53.714;11.372;2023-02-17T08:55:56;100390.25;;;8.07;100.00
61786;BME280;47692;53.714;11.372;2023-02-17T08:58:21;100389.41;;;8.07;100.00
61786;BME280;47692;53.714;11.372;2023-02-17T09:00:47;100383.31;;;8.06;100.00
61786;BME280;47692;53.714;11.372;2023-02-17T09:03:12;100379.81;;;8.11;100.00
61786;BME280;47692;53.714;11.372;2023-02-17T09:05:38;100367.69;;;8.09;100.00
61786;BME280;47692;53.714;11.372;2023-02-17T09:08:03;100368.50;;;8.12;100.00
61786;BME280;47692;53.714;11.372;2023-02-17T09:10:29;100366.78;;;8.12;100.00
61786;BME280;47692;53.714;11.372;2023-02-17T09:12:55;100361.50;;;8.15;100.00
61786;BME280;47692;53.714;11.372;2023-02-17T09:15:20;100351.97;;;8.16;100.00
61786;BME280;47692;53.714;11.372;2023-02-17T09:17:45;100351.91;;;8.19;100.00
61786;BME280;47692;53.714;11.372;2023-02-17T09:20:11;100357.97;;;8.18;100.00
61786;BME280;47692;53.714;11.372;2023-02-17T09:22:36;100349.28;;;8.19;100.00
61786;BME280;47692;53.714;11.372;2023-02-17T09:25:03;100348.41;;;8.20;100.00
61786;BME280;47692;53.714;11.372;2023-02-17T09:27:28;100346.69;;;8.19;100.00
61786;BME280;47692;53.714;11.372;2023-02-17T09:29:54;100357.91;;;8.22;100.00
61786;BME280;47692;53.714;11.372;2023-02-17T09:32:19;100345.78;;;8.21;100.00
61786;BME280;47692;53.714;11.372;2023-02-17T09:34:44;100331.09;;;8.19;100.00
61786;BME280;47692;53.714;11.372;2023-02-17T09:37:18;100334.56;;;8.19;100.00
61786;BME280;47692;53.714;11.372;2023-02-17T09:39:44;100343.28;;;8.17;100.00
61786;BME280;47692;53.714;11.372;2023-02-17T09:42:21;100345.06;;;8.15;100.00
61786;BME280;47692;53.714;11.372;2023-02-17T09:44:50;100332.81;;;8.20;100.00
61786;BME280;47692;53.714;11.372;2023-02-17T09:47:28;100325.97;;;8.16;100.00
61786;BME280;47692;53.714;11.372;2023-02-17T09:50:03;100316.41;;;8.16;100.00
61786;BME280;47692;53.714;11.372;2023-02-17T09:53:10;100324.16;;;8.18;100.00
61786;BME280;47692;53.714;11.372;2023-02-17T09:55:30;100318.13;;;8.17;100.00
61786;BME280;47692;53.714;11.372;2023-02-17T09:58:02;100313.72;;;8.21;100.00
61786;BME280;47692;53.714;11.372;2023-02-17T10:00:31;100299.97;;;8.16;100.00
61786;BME280;47692;53.714;11.372;2023-02-17T10:05:57;100292.06;;;8.20;100.00
61786;BME280;47692;53.714;11.372;2023-02-17T10:08:30;100291.22;;;8.20;100.00
61786;BME280;47692;53.714;11.372;2023-02-17T10:11:03;100279.91;;;8.21;100.00
61786;BME280;47692;53.714;11.372;2023-02-17T10:13:33;100287.72;;;8.21;100.00
61786;BME280;47692;53.714;11.372;2023-02-17T10:16:04;100289.44;;;8.22;100.00
61786;BME280;47692;53.714;11.372;2023-02-17T10:18:36;100277.28;;;8.22;100.00
61786;BME280;47692;53.714;11.372;2023-02-17T10:21:06;100275.47;;;8.26;100.00
61786;BME280;47692;53.714;11.372;2023-02-17T10:23:36;100272.00;;;8.27;100.00
61786;BME280;47692;53.714;11.372;2023-02-17T10:26:24;100272.00;;;8.27;100.00
61786;BME280;47692;53.714;11.372;2023-02-17T10:29:00;100265.88;;;8.30;100.00
61786;BME280;47692;53.714;11.372;2023-02-17T10:38:05;100260.59;;;8.33;100.00
61786;BME280;47692;53.714;11.372;2023-02-17T10:40:38;100249.34;;;8.32;100.00
61786;BME280;47692;53.714;11.372;2023-02-17T10:43:04;100250.09;;;8.37;100.00
61786;BME280;47692;53.714;11.372;2023-02-17T10:45:40;100245.78;;;8.36;100.00
61786;BME280;47692;53.714;11.372;2023-02-17T10:50:41;100238.84;;;8.35;100.00
61786;BME280;47692;53.714;11.372;2023-02-17T10:53:23;100250.97;;;8.36;100.00
61786;BME280;47692;53.714;11.372;2023-02-17T10:55:57;100252.78;;;8.34;100.00
61786;BME280;47692;53.714;11.372;2023-02-17T11:01:11;100248.38;;;8.36;100.00
61786;BME280;47692;53.714;11.372;2023-02-17T11:03:37;100245.78;;;8.38;100.00
61786;BME280;47692;53.714;11.372;2023-02-17T11:11:16;100230.13;;;8.39;100.00
61786;BME280;47692;53.714;11.372;2023-02-17T11:13:55;100228.31;;;8.41;100.00
61786;BME280;47692;53.714;11.372;2023-02-17T11:16:44;100219.63;;;8.44;100.00
61786;BME280;47692;53.714;11.372;2023-02-17T11:21:55;100221.25;;;8.50;100.00
61786;BME280;47692;53.714;11.372;2023-02-17T11:24:21;100228.09;;;8.54;100.00
61786;BME280;47692;53.714;11.372;2023-02-17T11:26:57;100222.03;;;8.53;100.00
61786;BME280;47692;53.714;11.372;2023-02-17T11:29:23;100217.69;;;8.54;100.00
61786;BME280;47692;53.714;11.372;2023-02-17T11:31:56;100218.47;;;8.59;100.00
61786;BME280;47692;53.714;11.372;2023-02-17T11:34:24;100224.47;;;8.61;100.00
61786;BME280;47692;53.714;11.372;2023-02-17T11:39:40;100213.91;;;8.67;100.00
61786;BME280;47692;53.714;11.372;2023-02-17T11:42:26;100189.56;;;8.71;100.00
61786;BME280;47692;53.714;11.372;2023-02-17T11:44:55;100195.56;;;8.73;100.00
61786;BME280;47692;53.714;11.372;2023-02-17T11:50:34;100180.78;;;8.76;100.00
61786;BME280;47692;53.714;11.372;2023-02-17T11:55:53;100189.38;;;8.78;100.00
61786;BME280;47692;53.714;11.372;2023-02-17T12:03:56;100170.22;;;8.82;100.00
61786;BME280;47692;53.714;11.372;2023-02-17T12:06:27;100177.97;;;8.83;100.00
61786;BME280;47692;53.714;11.372;2023-02-17T12:17:34;100169.19;;;8.87;100.00
61786;BME280;47692;53.714;11.372;2023-02-17T12:25:49;100161.13;;;8.98;100.00
61786;BME280;47692;53.714;11.372;2023-02-17T12:34:24;100141.84;;;9.05;100.00
61786;BME280;47692;53.714;11.372;2023-02-17T12:36:54;100136.53;;;9.09;100.00
61786;BME280;47692;53.714;11.372;2023-02-17T12:39:23;100148.69;;;9.10;100.00
61786;BME280;47692;53.714;11.372;2023-02-17T12:44:43;100153.06;;;9.09;100.00
61786;BME280;47692;53.714;11.372;2023-02-17T12:47:23;100143.47;;;9.10;100.00
61786;BME280;47692;53.714;11.372;2023-02-17T12:52:50;100146.97;;;9.09;100.00
61786;BME280;47692;53.714;11.372;2023-02-17T12:55:54;100137.31;;;9.12;100.00
61786;BME280;47692;53.714;11.372;2023-02-17T12:58:33;100143.41;;;9.13;100.00
61786;BME280;47692;53.714;11.372;2023-02-17T13:01:04;100139.00;;;9.15;100.00
61786;BME280;47692;53.714;11.372;2023-02-17T13:03:31;100137.31;;;9.14;100.00
61786;BME280;47692;53.714;11.372;2023-02-17T13:08:49;100120.75;;;9.15;100.00
61786;BME280;47692;53.714;11.372;2023-02-17T13:11:34;100122.47;;;9.16;100.00
61786;BME280;47692;53.714;11.372;2023-02-17T13:16:44;100112.78;;;9.21;100.00
61786;BME280;47692;53.714;11.372;2023-02-17T13:19:13;100131.03;;;9.21;100.00
61786;BME280;47692;53.714;11.372;2023-02-17T13:21:51;100123.16;;;9.24;100.00
61786;BME280;47692;53.714;11.372;2023-02-17T13:24:36;100122.19;;;9.27;100.00
61786;BME280;47692;53.714;11.372;2023-02-17T13:29:43;100110.88;;;9.28;100.00
61786;BME280;47692;53.714;11.372;2023-02-17T13:32:11;100117.78;;;9.30;100.00
61786;BME280;47692;53.714;11.372;2023-02-17T13:34:41;100120.38;;;9.30;100.00
61786;BME280;47692;53.714;11.372;2023-02-17T13:37:16;100126.44;;;9.31;100.00
61786;BME280;47692;53.714;11.372;2023-02-17T13:39:42;100113.34;;;9.32;100.00
61786;BME280;47692;53.714;11.372;2023-02-17T13:42:38;100103.84;;;9.31;100.00
61786;BME280;47692;53.714;11.372;2023-02-17T13:45:36;100096.03;;;9.31;100.00
61786;BME280;47692;53.714;11.372;2023-02-17T13:50:47;100090.72;;;9.34;100.00
61786;BME280;47692;53.714;11.372;2023-02-17T13:53:30;100106.28;;;9.37;100.00
61786;BME280;47692;53.714;11.372;2023-02-17T13:56:05;100097.38;;;9.45;100.00
61786;BME280;47692;53.714;11.372;2023-02-17T13:58:37;100104.28;;;9.47;100.00
61786;BME280;47692;53.714;11.372;2023-02-17T14:01:05;100083.47;;;9.46;100.00
61786;BME280;47692;53.714;11.372;2023-02-17T14:03:41;100081.69;;;9.48;100.00
61786;BME280;47692;53.714;11.372;2023-02-17T14:06:12;100088.59;;;9.49;100.00
61786;BME280;47692;53.714;11.372;2023-02-17T14:08:39;100095.53;;;9.48;100.00
61786;BME280;47692;53.714;11.372;2023-02-17T14:11:31;100086.88;;;9.48;100.00
61786;BME280;47692;53.714;11.372;2023-02-17T14:13:58;100107.63;;;9.51;100.00
61786;BME280;47692;53.714;11.372;2023-02-17T14:16:34;100093.81;;;9.49;100.00
61786;BME280;47692;53.714;11.372;2023-02-17T14:19:18;100096.41;;;9.49;100.00
61786;BME280;47692;53.714;11.372;2023-02-17T14:21:55;100089.56;;;9.45;100.00
61786;BME280;47692;53.714;11.372;2023-02-17T14:24:31;100107.81;;;9.45;100.00
61786;BME280;47692;53.714;11.372;2023-02-17T14:27:07;100101.69;;;9.47;100.00
61786;BME280;47692;53.714;11.372;2023-02-17T14:29:44;100096.47;;;9.47;100.00